sensor_id;sensor_type;location;lat;lon;timestamp;temperature;humidity
52509;DHT22;38420;53.150;6.370;2023-06-05T00:00:42;11.00;99.90
52509;DHT22;38420;53.150;6.370;2023-06-05T00:03:07;10.70;99.90
52509;DHT22;38420;53.150;6.370;2023-06-05T00:05:33;11.40;99.90
52509;DHT22;38420;53.150;6.370;2023-06-05T00:07:58;10.70;99.90
52509;DHT22;38420;53.150;6.370;2023-06-05T00:10:24;10.70;99.90
52509;DHT22;38420;53.150;6.370;2023-06-05T00:12:50;11.30;99.90
52509;DHT22;38420;53.150;6.370;2023-06-05T00:15:15;10.80;99.90
52509;DHT22;38420;53.150;6.370;2023-06-05T00:17:41;11.50;99.90
52509;DHT22;38420;53.150;6.370;2023-06-05T00:20:07;11.50;99.90
52509;DHT22;38420;53.150;6.370;2023-06-05T00:22:36;11.60;99.90
52509;DHT22;38420;53.150;6.370;2023-06-05T00:25:03;11.00;99.90
52509;DHT22;38420;53.150;6.370;2023-06-05T00:27:28;10.80;99.90
52509;DHT22;38420;53.150;6.370;2023-06-05T00:29:54;10.90;99.90
52509;DHT22;38420;53.150;6.370;2023-06-05T00:32:20;10.80;99.90
52509;DHT22;38420;53.150;6.370;2023-06-05T00:34:46;11.20;99.90
52509;DHT22;38420;53.150;6.370;2023-06-05T00:37:12;11.50;99.90
52509;DHT22;38420;53.150;6.370;2023-06-05T00:39:41;10.80;99.90
52509;DHT22;38420;53.150;6.370;2023-06-05T00:42:07;11.40;99.90
52509;DHT22;38420;53.150;6.370;2023-06-05T00:44:34;11.60;99.90
52509;DHT22;38420;53.150;6.370;2023-06-05T00:47:01;11.50;99.90
52509;DHT22;38420;53.150;6.370;2023-06-05T00:49:27;11.00;99.90
52509;DHT22;38420;53.150;6.370;2023-06-05T00:51:53;11.20;99.90
52509;DHT22;38420;53.150;6.370;2023-06-05T00:54:19;11.60;99.90
52509;DHT22;38420;53.150;6.370;2023-06-05T00:56:46;11.70;99.90
52509;DHT22;38420;53.150;6.370;2023-06-05T00:59:12;11.70;99.90
52509;DHT22;38420;53.150;6.370;2023-06-05T01:01:40;11.20;99.90
52509;DHT22;38420;53.150;6.370;2023-06-05T01:04:08;11.00;99.90
52509;DHT22;38420;53.150;6.370;2023-06-05T01:06:34;11.50;99.90
52509;DHT22;38420;53.150;6.370;2023-06-05T01:09:02;11.20;99.90
52509;DHT22;38420;53.150;6.370;2023-06-05T01:14:15;11.70;99.90
52509;DHT22;38420;53.150;6.370;2023-06-05T01:16:53;11.30;99.90
52509;DHT22;38420;53.150;6.370;2023-06-05T01:19:23;11.80;99.90
52509;DHT22;38420;53.150;6.370;2023-06-05T01:21:53;11.10;99.90
52509;DHT22;38420;53.150;6.370;2023-06-05T01:24:19;11.20;99.90
52509;DHT22;38420;53.150;6.370;2023-06-05T01:27:08;11.10;99.90
52509;DHT22;38420;53.150;6.370;2023-06-05T01:35:03;11.80;99.90
52509;DHT22;38420;53.150;6.370;2023-06-05T01:37:30;11.10;99.90
52509;DHT22;38420;53.150;6.370;2023-06-05T01:40:02;11.80;99.90
52509;DHT22;38420;53.150;6.370;2023-06-05T01:42:31;11.00;99.90
52509;DHT22;38420;53.150;6.370;2023-06-05T01:44:57;11.00;99.90
52509;DHT22;38420;53.150;6.370;2023-06-05T01:47:31;11.70;99.90
52509;DHT22;38420;53.150;6.370;2023-06-05T01:49:57;11.00;99.90
52509;DHT22;38420;53.150;6.370;2023-06-05T01:52:22;11.10;99.90
52509;DHT22;38420;53.150;6.370;2023-06-05T01:54:49;11.00;99.90
52509;DHT22;38420;53.150;6.370;2023-06-05T01:57:15;11.10;99.90
52509;DHT22;38420;53.150;6.370;2023-06-05T01:59:41;11.40;99.90
52509;DHT22;38420;53.150;6.370;2023-06-05T02:02:09;10.90;99.90
52509;DHT22;38420;53.150;6.370;2023-06-05T02:04:34;11.00;99.90
52509;DHT22;38420;53.150;6.370;2023-06-05T02:07:00;11.00;99.90
52509;DHT22;38420;53.150;6.370;2023-06-05T02:09:29;10.90;99.90
52509;DHT22;38420;53.150;6.370;2023-06-05T02:11:58;11.00;99.90
52509;DHT22;38420;53.150;6.370;2023-06-05T02:14:32;11.60;99.90
52509;DHT22;38420;53.150;6.370;2023-06-05T02:17:01;11.70;99.90
52509;DHT22;38420;53.150;6.370;2023-06-05T02:19:28;11.40;99.90
52509;DHT22;38420;53.150;6.370;2023-06-05T02:21:54;11.00;99.90
52509;DHT22;38420;53.150;6.370;2023-06-05T02:24:19;10.70;99.90
52509;DHT22;38420;53.150;6.370;2023-06-05T02:26:45;11.40;99.90
52509;DHT22;38420;53.150;6.370;2023-06-05T02:29:11;10.80;99.90
52509;DHT22;38420;53.150;6.370;2023-06-05T02:31:37;11.10;99.90
52509;DHT22;38420;53.150;6.370;2023-06-05T02:34:03;10.80;99.90
52509;DHT22;38420;53.150;6.370;2023-06-05T02:36:29;11.50;99.90
52509;DHT22;38420;53.150;6.370;2023-06-05T02:38:58;11.00;99.90
52509;DHT22;38420;53.150;6.370;2023-06-05T02:41:25;11.00;99.90
52509;DHT22;38420;53.150;6.370;2023-06-05T02:43:55;10.80;99.90
52509;DHT22;38420;53.150;6.370;2023-06-05T02:46:21;10.90;99.90
52509;DHT22;38420;53.150;6.370;2023-06-05T02:48:47;10.90;99.90
52509;DHT22;38420;53.150;6.370;2023-06-05T02:51:12;10.80;99.90
52509;DHT22;38420;53.150;6.370;2023-06-05T02:53:38;10.90;99.90
52509;DHT22;38420;53.150;6.370;2023-06-05T02:56:04;11.70;99.90
52509;DHT22;38420;53.150;6.370;2023-06-05T02:58:30;10.80;99.90
52509;DHT22;38420;53.150;6.370;2023-06-05T03:01:01;11.90;99.90
52509;DHT22;38420;53.150;6.370;2023-06-05T03:03:31;11.50;99.90
52509;DHT22;38420;53.150;6.370;2023-06-05T03:06:01;11.70;99.90
52509;DHT22;38420;53.150;6.370;2023-06-05T03:08:35;11.80;99.90
52509;DHT22;38420;53.150;6.370;2023-06-05T03:11:02;11.00;99.90
52509;DHT22;38420;53.150;6.370;2023-06-05T03:13:28;11.80;99.90
52509;DHT22;38420;53.150;6.370;2023-06-05T03:15:56;11.20;99.90
52509;DHT22;38420;53.150;6.370;2023-06-05T03:18:26;11.50;99.90
52509;DHT22;38420;53.150;6.370;2023-06-05T03:20:53;11.60;99.90
52509;DHT22;38420;53.150;6.370;2023-06-05T03:23:26;10.90;99.90
52509;DHT22;38420;53.150;6.370;2023-06-05T03:25:53;11.70;99.90
52509;DHT22;38420;53.150;6.370;2023-06-05T03:28:20;11.90;99.90
52509;DHT22;38420;53.150;6.370;2023-06-05T03:30:46;11.80;99.90
52509;DHT22;38420;53.150;6.370;2023-06-05T03:33:13;11.90;99.90
52509;DHT22;38420;53.150;6.370;2023-06-05T03:35:43;11.20;99.90
52509;DHT22;38420;53.150;6.370;2023-06-05T03:38:11;11.20;99.90
52509;DHT22;38420;53.150;6.370;2023-06-05T03:40:37;11.80;99.90
52509;DHT22;38420;53.150;6.370;2023-06-05T03:43:05;11.80;99.90
52509;DHT22;38420;53.150;6.370;2023-06-05T03:45:31;12.00;99.90
52509;DHT22;38420;53.150;6.370;2023-06-05T03:47:57;11.10;99.90
52509;DHT22;38420;53.150;6.370;2023-06-05T03:50:25;11.40;99.90
52509;DHT22;38420;53.150;6.370;2023-06-05T03:52:54;11.40;99.90
52509;DHT22;38420;53.150;6.370;2023-06-05T03:55:31;11.70;99.90
52509;DHT22;38420;53.150;6.370;2023-06-05T03:58:08;11.30;99.90
52509;DHT22;38420;53.150;6.370;2023-06-05T04:00:34;11.90;99.90
52509;DHT22;38420;53.150;6.370;2023-06-05T04:03:00;11.80;99.90
52509;DHT22;38420;53.150;6.370;2023-06-05T04:05:26;11.80;99.90
52509;DHT22;38420;53.150;6.370;2023-06-05T04:07:51;11.20;99.90
52509;DHT22;38420;53.150;6.370;2023-06-05T04:10:17;11.30;99.90
52509;DHT22;38420;53.150;6.370;2023-06-05T04:12:42;11.90;99.90
52509;DHT22;38420;53.150;6.370;2023-06-05T04:15:08;11.20;99.90
52509;DHT22;38420;53.150;6.370;2023-06-05T04:17:35;11.40;99.90
52509;DHT22;38420;53.150;6.370;2023-06-05T04:20:02;11.90;99.90
52509;DHT22;38420;53.150;6.370;2023-06-05T04:22:29;11.90;99.90
52509;DHT22;38420;53.150;6.370;2023-06-05T04:24:55;11.40;99.90
52509;DHT22;38420;53.150;6.370;2023-06-05T04:27:20;12.00;99.90
52509;DHT22;38420;53.150;6.370;2023-06-05T04:29:46;11.90;99.90
52509;DHT22;38420;53.150;6.370;2023-06-05T04:32:13;11.50;99.90
52509;DHT22;38420;53.150;6.370;2023-06-05T04:34:39;12.00;99.90
52509;DHT22;38420;53.150;6.370;2023-06-05T04:37:05;10.90;99.90
52509;DHT22;38420;53.150;6.370;2023-06-05T04:39:31;12.00;99.90
52509;DHT22;38420;53.150;6.370;2023-06-05T04:41:56;11.80;99.90
52509;DHT22;38420;53.150;6.370;2023-06-05T04:44:22;12.10;99.90
52509;DHT22;38420;53.150;6.370;2023-06-05T04:46:48;12.10;99.90
52509;DHT22;38420;53.150;6.370;2023-06-05T04:49:15;11.70;99.90
52509;DHT22;38420;53.150;6.370;2023-06-05T04:51:42;12.10;99.90
52509;DHT22;38420;53.150;6.370;2023-06-05T04:54:09;11.70;99.90
52509;DHT22;38420;53.150;6.370;2023-06-05T04:56:35;11.70;99.90
52509;DHT22;38420;53.150;6.370;2023-06-05T04:59:02;11.80;99.90
52509;DHT22;38420;53.150;6.370;2023-06-05T05:01:31;11.90;99.90
52509;DHT22;38420;53.150;6.370;2023-06-05T05:03:56;12.10;99.90
52509;DHT22;38420;53.150;6.370;2023-06-05T05:06:22;12.30;99.90
52509;DHT22;38420;53.150;6.370;2023-06-05T05:08:48;12.30;99.90
52509;DHT22;38420;53.150;6.370;2023-06-05T05:11:14;11.90;99.90
52509;DHT22;38420;53.150;6.370;2023-06-05T05:13:40;12.20;99.90
52509;DHT22;38420;53.150;6.370;2023-06-05T05:16:06;12.30;99.90
52509;DHT22;38420;53.150;6.370;2023-06-05T05:18:39;11.90;99.90
52509;DHT22;38420;53.150;6.370;2023-06-05T05:21:06;12.30;99.90
52509;DHT22;38420;53.150;6.370;2023-06-05T05:23:32;11.90;99.90
52509;DHT22;38420;53.150;6.370;2023-06-05T05:25:59;12.40;99.90
52509;DHT22;38420;53.150;6.370;2023-06-05T05:28:24;12.00;99.90
52509;DHT22;38420;53.150;6.370;2023-06-05T05:30:51;12.30;99.90
52509;DHT22;38420;53.150;6.370;2023-06-05T05:33:17;12.30;99.90
52509;DHT22;38420;53.150;6.370;2023-06-05T05:35:44;12.30;99.90
52509;DHT22;38420;53.150;6.370;2023-06-05T05:38:09;12.30;99.90
52509;DHT22;38420;53.150;6.370;2023-06-05T05:40:35;12.40;99.90
52509;DHT22;38420;53.150;6.370;2023-06-05T05:43:00;12.60;99.90
52509;DHT22;38420;53.150;6.370;2023-06-05T05:45:26;12.40;99.90
52509;DHT22;38420;53.150;6.370;2023-06-05T05:47:52;12.20;99.90
52509;DHT22;38420;53.150;6.370;2023-06-05T05:50:17;12.10;99.90
52509;DHT22;38420;53.150;6.370;2023-06-05T05:52:43;12.20;99.90
52509;DHT22;38420;53.150;6.370;2023-06-05T05:55:10;12.50;99.90
52509;DHT22;38420;53.150;6.370;2023-06-05T05:57:36;12.50;99.90
52509;DHT22;38420;53.150;6.370;2023-06-05T06:00:02;12.30;99.90
52509;DHT22;38420;53.150;6.370;2023-06-05T06:02:31;12.40;99.90
52509;DHT22;38420;53.150;6.370;2023-06-05T06:04:57;12.60;99.90
52509;DHT22;38420;53.150;6.370;2023-06-05T06:07:23;12.60;99.90
52509;DHT22;38420;53.150;6.370;2023-06-05T06:09:48;12.70;99.90
52509;DHT22;38420;53.150;6.370;2023-06-05T06:12:14;12.70;99.90
52509;DHT22;38420;53.150;6.370;2023-06-05T06:14:39;12.60;99.90
52509;DHT22;38420;53.150;6.370;2023-06-05T06:17:05;12.80;99.90
52509;DHT22;38420;53.150;6.370;2023-06-05T06:19:35;12.90;99.90
52509;DHT22;38420;53.150;6.370;2023-06-05T06:22:01;12.70;99.90
52509;DHT22;38420;53.150;6.370;2023-06-05T06:24:26;12.60;99.90
52509;DHT22;38420;53.150;6.370;2023-06-05T06:26:52;12.70;99.90
52509;DHT22;38420;53.150;6.370;2023-06-05T06:29:21;12.90;99.90
52509;DHT22;38420;53.150;6.370;2023-06-05T06:31:49;13.00;99.90
52509;DHT22;38420;53.150;6.370;2023-06-05T06:34:15;13.00;99.90
52509;DHT22;38420;53.150;6.370;2023-06-05T06:36:42;13.20;99.90
52509;DHT22;38420;53.150;6.370;2023-06-05T06:39:10;13.10;99.90
52509;DHT22;38420;53.150;6.370;2023-06-05T06:41:36;13.30;99.90
52509;DHT22;38420;53.150;6.370;2023-06-05T06:44:02;13.40;99.90
52509;DHT22;38420;53.150;6.370;2023-06-05T06:46:29;13.30;99.90
52509;DHT22;38420;53.150;6.370;2023-06-05T06:48:55;14.00;99.90
52509;DHT22;38420;53.150;6.370;2023-06-05T06:51:21;13.10;99.90
52509;DHT22;38420;53.150;6.370;2023-06-05T06:53:47;13.30;99.90
52509;DHT22;38420;53.150;6.370;2023-06-05T06:56:14;13.10;99.90
52509;DHT22;38420;53.150;6.370;2023-06-05T06:58:42;13.10;99.90
52509;DHT22;38420;53.150;6.370;2023-06-05T07:01:08;13.00;99.90
52509;DHT22;38420;53.150;6.370;2023-06-05T07:03:34;13.10;99.90
52509;DHT22;38420;53.150;6.370;2023-06-05T07:06:01;13.40;99.90
52509;DHT22;38420;53.150;6.370;2023-06-05T07:08:26;13.30;99.90
52509;DHT22;38420;53.150;6.370;2023-06-05T07:10:53;13.50;99.90
52509;DHT22;38420;53.150;6.370;2023-06-05T07:13:20;13.30;99.90
52509;DHT22;38420;53.150;6.370;2023-06-05T07:15:47;13.30;99.90
52509;DHT22;38420;53.150;6.370;2023-06-05T07:18:12;13.30;99.90
52509;DHT22;38420;53.150;6.370;2023-06-05T07:20:38;13.40;99.90
52509;DHT22;38420;53.150;6.370;2023-06-05T07:23:04;13.70;99.90
52509;DHT22;38420;53.150;6.370;2023-06-05T07:25:29;13.60;99.90
52509;DHT22;38420;53.150;6.370;2023-06-05T07:27:55;13.70;99.90
52509;DHT22;38420;53.150;6.370;2023-06-05T07:30:21;14.80;99.90
52509;DHT22;38420;53.150;6.370;2023-06-05T07:32:47;14.20;99.90
52509;DHT22;38420;53.150;6.370;2023-06-05T07:35:12;14.00;99.90
52509;DHT22;38420;53.150;6.370;2023-06-05T07:37:39;14.10;99.90
52509;DHT22;38420;53.150;6.370;2023-06-05T07:40:06;14.10;99.90
52509;DHT22;38420;53.150;6.370;2023-06-05T07:42:31;14.50;99.90
52509;DHT22;38420;53.150;6.370;2023-06-05T07:44:57;15.10;99.90
52509;DHT22;38420;53.150;6.370;2023-06-05T07:47:23;15.90;99.90
52509;DHT22;38420;53.150;6.370;2023-06-05T07:49:58;16.70;99.90
52509;DHT22;38420;53.150;6.370;2023-06-05T07:52:25;17.40;99.90
52509;DHT22;38420;53.150;6.370;2023-06-05T07:54:51;17.30;99.90
52509;DHT22;38420;53.150;6.370;2023-06-05T07:57:16;17.00;99.90
52509;DHT22;38420;53.150;6.370;2023-06-05T07:59:43;17.20;99.90
52509;DHT22;38420;53.150;6.370;2023-06-05T08:02:08;17.60;99.90
52509;DHT22;38420;53.150;6.370;2023-06-05T08:04:34;17.90;99.90
52509;DHT22;38420;53.150;6.370;2023-06-05T08:07:01;18.60;99.90
52509;DHT22;38420;53.150;6.370;2023-06-05T08:09:26;18.80;99.90
52509;DHT22;38420;53.150;6.370;2023-06-05T08:11:52;19.50;99.90
52509;DHT22;38420;53.150;6.370;2023-06-05T08:14:18;19.80;99.90
52509;DHT22;38420;53.150;6.370;2023-06-05T08:16:44;20.00;99.90
52509;DHT22;38420;53.150;6.370;2023-06-05T08:19:10;19.80;99.90
52509;DHT22;38420;53.150;6.370;2023-06-05T08:21:36;19.90;99.90
52509;DHT22;38420;53.150;6.370;2023-06-05T08:24:03;20.60;99.90
52509;DHT22;38420;53.150;6.370;2023-06-05T08:26:28;21.00;99.90
52509;DHT22;38420;53.150;6.370;2023-06-05T08:28:54;20.90;99.90
52509;DHT22;38420;53.150;6.370;2023-06-05T08:31:19;20.50;99.90
52509;DHT22;38420;53.150;6.370;2023-06-05T08:33:45;19.90;99.90
52509;DHT22;38420;53.150;6.370;2023-06-05T08:36:11;19.30;99.90
52509;DHT22;38420;53.150;6.370;2023-06-05T08:38:37;18.60;99.90
52509;DHT22;38420;53.150;6.370;2023-06-05T08:41:06;18.10;99.90
52509;DHT22;38420;53.150;6.370;2023-06-05T08:43:39;17.80;99.90
52509;DHT22;38420;53.150;6.370;2023-06-05T08:46:06;17.90;99.90
52509;DHT22;38420;53.150;6.370;2023-06-05T08:48:37;18.30;99.90
52509;DHT22;38420;53.150;6.370;2023-06-05T08:51:03;18.80;99.90
52509;DHT22;38420;53.150;6.370;2023-06-05T08:53:32;19.60;99.90
52509;DHT22;38420;53.150;6.370;2023-06-05T08:56:00;20.10;99.90
52509;DHT22;38420;53.150;6.370;2023-06-05T08:58:26;20.30;99.90
52509;DHT22;38420;53.150;6.370;2023-06-05T09:00:52;20.10;99.90
52509;DHT22;38420;53.150;6.370;2023-06-05T09:03:18;20.20;99.90
52509;DHT22;38420;53.150;6.370;2023-06-05T09:05:46;19.80;99.90
52509;DHT22;38420;53.150;6.370;2023-06-05T09:08:14;19.30;99.90
52509;DHT22;38420;53.150;6.370;2023-06-05T09:10:39;19.00;99.90
52509;DHT22;38420;53.150;6.370;2023-06-05T09:13:05;18.60;99.90
52509;DHT22;38420;53.150;6.370;2023-06-05T09:15:32;18.40;99.90
52509;DHT22;38420;53.150;6.370;2023-06-05T09:18:12;18.30;99.90
52509;DHT22;38420;53.150;6.370;2023-06-05T09:20:39;18.40;99.90
52509;DHT22;38420;53.150;6.370;2023-06-05T09:23:21;18.30;99.90
52509;DHT22;38420;53.150;6.370;2023-06-05T09:25:50;18.40;99.90
52509;DHT22;38420;53.150;6.370;2023-06-05T09:28:16;18.50;99.90
52509;DHT22;38420;53.150;6.370;2023-06-05T09:33:23;18.50;99.90
52509;DHT22;38420;53.150;6.370;2023-06-05T09:36:05;18.50;99.90
52509;DHT22;38420;53.150;6.370;2023-06-05T09:38:31;18.70;99.90
52509;DHT22;38420;53.150;6.370;2023-06-05T09:41:07;18.80;99.90
52509;DHT22;38420;53.150;6.370;2023-06-05T09:43:34;18.90;99.90
52509;DHT22;38420;53.150;6.370;2023-06-05T09:46:06;19.00;99.90
52509;DHT22;38420;53.150;6.370;2023-06-05T09:48:32;18.80;99.90
52509;DHT22;38420;53.150;6.370;2023-06-05T09:53:34;18.50;99.90
52509;DHT22;38420;53.150;6.370;2023-06-05T09:56:01;18.40;99.90
52509;DHT22;38420;53.150;6.370;2023-06-05T09:58:28;18.30;99.90
52509;DHT22;38420;53.150;6.370;2023-06-05T10:00:54;18.20;99.90
52509;DHT22;38420;53.150;6.370;2023-06-05T10:03:22;18.20;99.90
52509;DHT22;38420;53.150;6.370;2023-06-05T10:05:47;18.00;99.90
52509;DHT22;38420;53.150;6.370;2023-06-05T10:08:13;18.00;99.90
52509;DHT22;38420;53.150;6.370;2023-06-05T10:10:40;17.90;99.90
52509;DHT22;38420;53.150;6.370;2023-06-05T10:13:06;18.20;99.90
52509;DHT22;38420;53.150;6.370;2023-06-05T10:15:33;18.30;99.90
52509;DHT22;38420;53.150;6.370;2023-06-05T10:18:00;18.40;99.90
52509;DHT22;38420;53.150;6.370;2023-06-05T10:20:26;18.50;99.90
52509;DHT22;38420;53.150;6.370;2023-06-05T10:22:53;18.60;99.90
52509;DHT22;38420;53.150;6.370;2023-06-05T10:25:20;18.70;99.90
52509;DHT22;38420;53.150;6.370;2023-06-05T10:28:10;18.90;99.90
52509;DHT22;38420;53.150;6.370;2023-06-05T10:36:48;18.80;99.90
52509;DHT22;38420;53.150;6.370;2023-06-05T10:39:18;18.50;99.90
52509;DHT22;38420;53.150;6.370;2023-06-05T10:41:44;18.50;99.90
52509;DHT22;38420;53.150;6.370;2023-06-05T10:44:10;18.30;99.90
52509;DHT22;38420;53.150;6.370;2023-06-05T10:46:36;18.40;99.90
52509;DHT22;38420;53.150;6.370;2023-06-05T10:49:10;18.50;99.90
52509;DHT22;38420;53.150;6.370;2023-06-05T10:51:42;18.50;99.90
52509;DHT22;38420;53.150;6.370;2023-06-05T10:54:13;18.50;99.90
52509;DHT22;38420;53.150;6.370;2023-06-05T10:59:27;18.20;99.90
52509;DHT22;38420;53.150;6.370;2023-06-05T11:15:05;18.30;99.90
52509;DHT22;38420;53.150;6.370;2023-06-05T11:17:32;18.50;99.90
52509;DHT22;38420;53.150;6.370;2023-06-05T11:19:59;18.50;99.90
52509;DHT22;38420;53.150;6.370;2023-06-05T11:22:24;18.40;99.90
52509;DHT22;38420;53.150;6.370;2023-06-05T11:27:54;18.40;99.90
52509;DHT22;38420;53.150;6.370;2023-06-05T11:30:25;18.20;99.90
52509;DHT22;38420;53.150;6.370;2023-06-05T11:32:52;18.30;99.90
52509;DHT22;38420;53.150;6.370;2023-06-05T11:35:23;18.30;99.90
52509;DHT22;38420;53.150;6.370;2023-06-05T11:38:09;18.40;99.90
52509;DHT22;38420;53.150;6.370;2023-06-05T11:40:36;18.50;99.90
52509;DHT22;38420;53.150;6.370;2023-06-05T11:43:06;18.40;99.90
52509;DHT22;38420;53.150;6.370;2023-06-05T11:45:48;18.30;99.90
52509;DHT22;38420;53.150;6.370;2023-06-05T11:48:14;18.40;99.90
52509;DHT22;38420;53.150;6.370;2023-06-05T11:50:52;18.50;99.90
52509;DHT22;38420;53.150;6.370;2023-06-05T11:53:18;18.50;99.90
52509;DHT22;38420;53.150;6.370;2023-06-05T11:55:44;18.60;99.90
52509;DHT22;38420;53.150;6.370;2023-06-05T11:58:27;18.60;99.90
52509;DHT22;38420;53.150;6.370;2023-06-05T12:01:09;18.80;99.90
52509;DHT22;38420;53.150;6.370;2023-06-05T12:03:38;18.60;99.90
52509;DHT22;38420;53.150;6.370;2023-06-05T12:06:05;18.50;99.90
52509;DHT22;38420;53.150;6.370;2023-06-05T12:08:32;18.50;99.90
52509;DHT22;38420;53.150;6.370;2023-06-05T12:10:59;18.60;99.90
52509;DHT22;38420;53.150;6.370;2023-06-05T12:13:50;18.70;99.90
52509;DHT22;38420;53.150;6.370;2023-06-05T12:16:17;18.70;99.90
52509;DHT22;38420;53.150;6.370;2023-06-05T12:18:44;18.50;99.90
52509;DHT22;38420;53.150;6.370;2023-06-05T12:21:24;18.50;99.90
52509;DHT22;38420;53.150;6.370;2023-06-05T12:23:50;18.70;99.90
52509;DHT22;38420;53.150;6.370;2023-06-05T12:26:17;18.40;99.90
52509;DHT22;38420;53.150;6.370;2023-06-05T12:28:44;18.10;99.90
52509;DHT22;38420;53.150;6.370;2023-06-05T12:31:33;18.10;99.90
52509;DHT22;38420;53.150;6.370;2023-06-05T12:34:00;18.10;99.90
52509;DHT22;38420;53.150;6.370;2023-06-05T12:36:25;18.20;99.90
52509;DHT22;38420;53.150;6.370;2023-06-05T12:38:54;18.20;99.90
52509;DHT22;38420;53.150;6.370;2023-06-05T12:41:20;18.30;99.90
52509;DHT22;38420;53.150;6.370;2023-06-05T12:43:45;18.30;99.90
52509;DHT22;38420;53.150;6.370;2023-06-05T12:46:23;18.40;99.90
52509;DHT22;38420;53.150;6.370;2023-06-05T12:48:48;18.40;99.90
52509;DHT22;38420;53.150;6.370;2023-06-05T12:51:15;18.40;99.90
52509;DHT22;38420;53.150;6.370;2023-06-05T12:53:40;18.30;99.90
52509;DHT22;38420;53.150;6.370;2023-06-05T12:56:06;18.50;99.90
52509;DHT22;38420;53.150;6.370;2023-06-05T12:58:32;18.40;99.90
52509;DHT22;38420;53.150;6.370;2023-06-05T13:00:57;18.20;99.90
52509;DHT22;38420;53.150;6.370;2023-06-05T13:03:23;17.90;99.90
52509;DHT22;38420;53.150;6.370;2023-06-05T13:05:48;18.10;99.90
52509;DHT22;38420;53.150;6.370;2023-06-05T13:08:14;18.10;99.90
52509;DHT22;38420;53.150;6.370;2023-06-05T13:10:40;18.20;99.90
52509;DHT22;38420;53.150;6.370;2023-06-05T13:13:05;18.10;99.90
52509;DHT22;38420;53.150;6.370;2023-06-05T13:15:31;18.10;99.90
52509;DHT22;38420;53.150;6.370;2023-06-05T13:17:57;18.10;99.90
52509;DHT22;38420;53.150;6.370;2023-06-05T13:20:22;17.80;99.90
52509;DHT22;38420;53.150;6.370;2023-06-05T13:22:48;17.90;99.90
52509;DHT22;38420;53.150;6.370;2023-06-05T13:25:13;17.90;99.90
52509;DHT22;38420;53.150;6.370;2023-06-05T13:27:39;17.90;99.90
52509;DHT22;38420;53.150;6.370;2023-06-05T13:30:05;17.80;99.90
52509;DHT22;38420;53.150;6.370;2023-06-05T13:32:32;17.80;99.90
52509;DHT22;38420;53.150;6.370;2023-06-05T13:34:59;18.00;99.90
52509;DHT22;38420;53.150;6.370;2023-06-05T13:37:24;17.80;99.90
52509;DHT22;38420;53.150;6.370;2023-06-05T13:39:51;17.90;99.90
52509;DHT22;38420;53.150;6.370;2023-06-05T13:42:16;17.80;99.90
52509;DHT22;38420;53.150;6.370;2023-06-05T13:44:43;17.90;99.90
52509;DHT22;38420;53.150;6.370;2023-06-05T13:47:09;17.80;99.90
52509;DHT22;38420;53.150;6.370;2023-06-05T13:49:35;17.80;99.90
52509;DHT22;38420;53.150;6.370;2023-06-05T13:52:00;17.60;99.90
52509;DHT22;38420;53.150;6.370;2023-06-05T13:54:26;17.70;99.90
52509;DHT22;38420;53.150;6.370;2023-06-05T13:56:52;17.70;99.90
52509;DHT22;38420;53.150;6.370;2023-06-05T13:59:17;17.70;99.90
52509;DHT22;38420;53.150;6.370;2023-06-05T14:01:43;17.80;99.90
52509;DHT22;38420;53.150;6.370;2023-06-05T14:04:09;17.90;99.90
52509;DHT22;38420;53.150;6.370;2023-06-05T14:06:34;17.90;99.90
52509;DHT22;38420;53.150;6.370;2023-06-05T14:09:04;18.00;99.90
52509;DHT22;38420;53.150;6.370;2023-06-05T14:11:29;17.90;99.90
52509;DHT22;38420;53.150;6.370;2023-06-05T14:13:55;17.90;99.90
52509;DHT22;38420;53.150;6.370;2023-06-05T14:16:21;17.80;99.90
52509;DHT22;38420;53.150;6.370;2023-06-05T14:18:46;17.80;99.90
52509;DHT22;38420;53.150;6.370;2023-06-05T14:21:12;17.70;99.90
52509;DHT22;38420;53.150;6.370;2023-06-05T14:23:38;17.70;99.90
52509;DHT22;38420;53.150;6.370;2023-06-05T14:26:04;17.70;99.90
52509;DHT22;38420;53.150;6.370;2023-06-05T14:28:29;17.90;99.90
52509;DHT22;38420;53.150;6.370;2023-06-05T14:30:55;17.90;99.90
52509;DHT22;38420;53.150;6.370;2023-06-05T14:33:21;18.00;99.90
52509;DHT22;38420;53.150;6.370;2023-06-05T14:35:46;18.00;99.90
52509;DHT22;38420;53.150;6.370;2023-06-05T14:38:12;18.00;99.90
52509;DHT22;38420;53.150;6.370;2023-06-05T14:40:41;17.90;99.90
52509;DHT22;38420;53.150;6.370;2023-06-05T14:43:07;17.70;99.90
52509;DHT22;38420;53.150;6.370;2023-06-05T14:45:33;17.80;99.90
52509;DHT22;38420;53.150;6.370;2023-06-05T14:47:58;17.70;99.90
52509;DHT22;38420;53.150;6.370;2023-06-05T14:50:24;17.70;99.90
52509;DHT22;38420;53.150;6.370;2023-06-05T14:52:50;17.70;99.90
52509;DHT22;38420;53.150;6.370;2023-06-05T14:55:15;17.50;99.90
52509;DHT22;38420;53.150;6.370;2023-06-05T14:57:41;17.50;99.90
52509;DHT22;38420;53.150;6.370;2023-06-05T15:00:07;17.50;99.90
52509;DHT22;38420;53.150;6.370;2023-06-05T15:02:34;17.40;99.90
52509;DHT22;38420;53.150;6.370;2023-06-05T15:05:00;17.20;99.90
52509;DHT22;38420;53.150;6.370;2023-06-05T15:07:38;17.30;99.90
52509;DHT22;38420;53.150;6.370;2023-06-05T15:10:04;17.30;99.90
52509;DHT22;38420;53.150;6.370;2023-06-05T15:12:30;17.30;99.90
52509;DHT22;38420;53.150;6.370;2023-06-05T15:14:56;17.30;99.90
52509;DHT22;38420;53.150;6.370;2023-06-05T15:17:22;17.30;99.90
52509;DHT22;38420;53.150;6.370;2023-06-05T15:19:47;17.30;99.90
52509;DHT22;38420;53.150;6.370;2023-06-05T15:22:13;17.20;99.90
52509;DHT22;38420;53.150;6.370;2023-06-05T15:24:39;17.10;99.90
52509;DHT22;38420;53.150;6.370;2023-06-05T15:27:04;17.00;99.90
52509;DHT22;38420;53.150;6.370;2023-06-05T15:29:30;16.90;99.90
52509;DHT22;38420;53.150;6.370;2023-06-05T15:31:56;16.90;99.90
52509;DHT22;38420;53.150;6.370;2023-06-05T15:34:21;16.70;99.90
52509;DHT22;38420;53.150;6.370;2023-06-05T15:36:47;16.70;99.90
52509;DHT22;38420;53.150;6.370;2023-06-05T15:39:13;16.60;99.90
52509;DHT22;38420;53.150;6.370;2023-06-05T15:41:39;16.60;99.90
52509;DHT22;38420;53.150;6.370;2023-06-05T15:44:05;16.50;99.90
52509;DHT22;38420;53.150;6.370;2023-06-05T15:46:32;16.50;99.90
52509;DHT22;38420;53.150;6.370;2023-06-05T15:48:57;16.50;99.90
52509;DHT22;38420;53.150;6.370;2023-06-05T15:51:23;16.40;99.90
52509;DHT22;38420;53.150;6.370;2023-06-05T15:53:52;16.40;99.90
52509;DHT22;38420;53.150;6.370;2023-06-05T15:56:18;16.40;99.90
52509;DHT22;38420;53.150;6.370;2023-06-05T15:58:43;16.60;99.90
52509;DHT22;38420;53.150;6.370;2023-06-05T16:01:09;16.40;99.90
52509;DHT22;38420;53.150;6.370;2023-06-05T16:03:35;16.50;99.90
52509;DHT22;38420;53.150;6.370;2023-06-05T16:06:01;16.50;99.90
52509;DHT22;38420;53.150;6.370;2023-06-05T16:08:26;16.30;99.90